Time;durP1;ratioP1;P1;durP2;ratioP2;P2;SDS_P1;SDS_P2;PMS_P1;PMS_P2;Temp;Humidity;BMP_temperature;BMP_pressure;BME280_temperature;BME280_humidity;BME280_pressure;Samples;Min_cycle;Max_cycle;Signal;HPM_P1;HPM_P2
2024/01/11 00:00:29;;;;;;;37.72;21.70;;;-2.90;99.90;;;;;;5050617;28;20419;-46
2024/01/11 00:02:54;;;;;;;36.30;21.55;;;-2.90;99.90;;;;;;5050830;28;20044;-46
2024/01/11 00:05:21;;;;;;;38.63;22.20;;;-2.80;99.90;;;;;;5049240;28;20036;-48
2024/01/11 00:07:47;;;;;;;39.78;22.55;;;-2.90;99.90;;;;;;5049069;28;20045;-49
2024/01/11 00:10:13;;;;;;;37.95;22.42;;;-2.90;99.90;;;;;;5056915;28;20043;-48
2024/01/11 00:12:39;;;;;;;35.78;21.63;;;-2.90;99.90;;;;;;5064955;28;20036;-48
2024/01/11 00:15:05;;;;;;;40.08;23.10;;;-2.90;99.90;;;;;;5063922;28;20550;-48
2024/01/11 00:17:31;;;;;;;39.20;21.80;;;-3.00;99.90;;;;;;5055783;28;20115;-47
2024/01/11 00:19:57;;;;;;;36.95;22.83;;;-2.90;99.90;;;;;;5046808;28;20584;-50
2024/01/11 00:22:22;;;;;;;37.33;22.67;;;-2.90;99.90;;;;;;5061556;28;20562;-47
2024/01/11 00:24:48;;;;;;;39.70;23.05;;;-2.90;99.90;;;;;;5063777;28;20146;-49
2024/01/11 00:27:14;;;;;;;42.90;23.48;;;-2.90;99.90;;;;;;5060464;28;20032;-47
2024/01/11 00:29:40;;;;;;;37.63;21.77;;;-3.00;99.90;;;;;;5060154;28;20270;-48
2024/01/11 00:32:05;;;;;;;40.20;23.05;;;-2.90;99.90;;;;;;5064177;28;20039;-47
2024/01/11 00:34:31;;;;;;;41.97;23.60;;;-2.90;99.90;;;;;;5059589;28;20099;-48
2024/01/11 00:36:57;;;;;;;37.25;21.50;;;-2.90;99.90;;;;;;5056368;28;20504;-46
2024/01/11 00:39:23;;;;;;;36.88;22.50;;;-2.90;99.90;;;;;;5062060;28;20047;-51
2024/01/11 00:41:48;;;;;;;37.03;22.08;;;-3.00;99.90;;;;;;5060176;28;20126;-48
2024/01/11 00:44:14;;;;;;;41.10;23.13;;;-3.00;99.90;;;;;;5058110;28;20055;-46
2024/01/11 00:46:40;;;;;;;37.50;22.52;;;-3.00;99.90;;;;;;5060382;28;20048;-47
2024/01/11 00:49:06;;;;;;;36.70;22.27;;;-3.00;99.90;;;;;;5063451;28;20032;-47
2024/01/11 00:51:32;;;;;;;38.78;21.17;;;-3.00;99.90;;;;;;5058618;28;20044;-47
2024/01/11 00:53:58;;;;;;;39.00;23.02;;;-3.10;99.90;;;;;;5062359;28;20036;-47
2024/01/11 00:56:24;;;;;;;37.42;22.15;;;-3.00;99.90;;;;;;5060904;28;20044;-46
2024/01/11 00:58:50;;;;;;;36.72;23.08;;;-3.00;99.90;;;;;;5063081;28;20055;-48
2024/01/11 01:01:15;;;;;;;38.72;21.27;;;-3.10;99.90;;;;;;5063004;28;20044;-48
2024/01/11 01:03:41;;;;;;;37.53;22.17;;;-3.10;99.90;;;;;;5062725;28;20044;-48
2024/01/11 01:06:07;;;;;;;37.00;22.38;;;-3.20;99.90;;;;;;5058118;28;20045;-46
2024/01/11 01:08:33;;;;;;;37.83;21.92;;;-3.30;99.90;;;;;;5059174;28;20041;-48
2024/01/11 01:10:58;;;;;;;39.88;23.38;;;-3.20;99.90;;;;;;5060025;28;20040;-46
2024/01/11 01:13:24;;;;;;;35.83;21.10;;;-3.30;99.90;;;;;;5048708;28;20523;-47
2024/01/11 01:15:50;;;;;;;36.97;20.77;;;-3.30;99.90;;;;;;5053325;28;20032;-47
2024/01/11 01:18:15;;;;;;;38.13;21.45;;;-3.30;99.90;;;;;;5053394;28;20041;-46
2024/01/11 01:20:41;;;;;;;39.30;23.05;;;-3.30;99.90;;;;;;5051002;28;20060;-49
2024/01/11 01:23:07;;;;;;;39.47;22.77;;;-3.30;99.90;;;;;;5049836;28;20465;-47
2024/01/11 01:25:33;;;;;;;42.05;24.08;;;-3.30;99.90;;;;;;5047688;28;20045;-48
2024/01/11 01:28:00;;;;;;;38.67;22.10;;;-3.30;99.90;;;;;;5049724;28;20123;-48
2024/01/11 01:30:26;;;;;;;44.72;24.17;;;-3.20;99.90;;;;;;5054652;28;20530;-48
2024/01/11 01:32:53;;;;;;;40.80;23.30;;;-3.20;99.90;;;;;;5048574;28;20044;-46
2024/01/11 01:35:18;;;;;;;43.92;24.65;;;-3.20;99.90;;;;;;5048595;28;20106;-46
2024/01/11 01:37:44;;;;;;;47.55;25.50;;;-3.20;99.90;;;;;;5047301;28;20036;-46
2024/01/11 01:40:12;;;;;;;43.10;24.15;;;-3.20;99.90;;;;;;5048290;28;20703;-48
2024/01/11 01:42:44;;;;;;;44.67;24.33;;;-3.20;99.90;;;;;;5031266;28;20113;-50
2024/01/11 01:45:11;;;;;;;42.80;23.95;;;-3.20;99.90;;;;;;5050702;28;20040;-48
2024/01/11 01:47:41;;;;;;;45.55;24.52;;;-3.10;99.90;;;;;;5055634;28;20676;-49
2024/01/11 01:50:09;;;;;;;45.58;23.75;;;-3.10;99.90;;;;;;5046863;28;20570;-47
2024/01/11 01:52:36;;;;;;;46.05;25.88;;;-3.10;99.90;;;;;;5049088;28;20049;-48
2024/01/11 01:55:03;;;;;;;43.90;24.90;;;-3.10;99.90;;;;;;5055921;28;20044;-48
2024/01/11 01:57:30;;;;;;;42.33;23.80;;;-3.10;99.90;;;;;;5062561;28;20222;-47
2024/01/11 01:59:56;;;;;;;45.50;24.88;;;-3.20;99.90;;;;;;5044716;28;20079;-48
2024/01/11 02:02:22;;;;;;;46.17;26.25;;;-2.80;99.90;;;;;;5055666;28;20044;-48
2024/01/11 02:04:48;;;;;;;46.40;23.88;;;-3.10;99.90;;;;;;5057952;28;20037;-46
2024/01/11 02:07:15;;;;;;;45.80;25.50;;;-3.10;99.90;;;;;;5062602;28;20441;-46
2024/01/11 02:09:42;;;;;;;46.90;25.48;;;-3.20;99.90;;;;;;5063529;28;20471;-48
2024/01/11 02:12:12;;;;;;;47.20;24.95;;;-3.30;99.90;;;;;;5058093;28;20039;-47
2024/01/11 02:14:38;;;;;;;43.33;25.50;;;-3.20;99.90;;;;;;5056025;28;20028;-48
2024/01/11 02:17:04;;;;;;;45.67;25.27;;;-3.20;99.90;;;;;;5058506;28;20402;-49
2024/01/11 02:19:30;;;;;;;42.85;25.23;;;-3.30;99.90;;;;;;5055211;28;20041;-46
2024/01/11 02:22:00;;;;;;;42.42;24.63;;;-3.30;99.90;;;;;;5063143;28;20035;-46
2024/01/11 02:24:26;;;;;;;44.05;23.75;;;-3.30;99.90;;;;;;5054939;28;20153;-47
2024/01/11 02:27:02;;;;;;;46.88;25.83;;;-3.30;99.90;;;;;;5052705;28;20157;-47
2024/01/11 02:29:29;;;;;;;45.13;25.23;;;-3.30;99.90;;;;;;5052954;28;20870;-48
2024/01/11 02:31:55;;;;;;;48.28;24.73;;;-3.30;99.90;;;;;;5051881;28;20052;-51
2024/01/11 02:34:23;;;;;;;46.50;24.08;;;-3.40;99.90;;;;;;5053607;28;20223;-50
2024/01/11 02:36:49;;;;;;;47.42;25.33;;;-3.40;99.90;;;;;;5051406;28;20052;-47
2024/01/11 02:39:18;;;;;;;45.17;24.25;;;-3.50;99.90;;;;;;5051068;28;20037;-47
2024/01/11 02:41:44;;;;;;;46.33;25.73;;;-3.50;99.90;;;;;;5052395;28;20048;-49
2024/01/11 02:44:10;;;;;;;45.58;24.63;;;-3.60;99.90;;;;;;5050734;28;20083;-48
2024/01/11 02:46:36;;;;;;;47.25;25.50;;;-3.50;99.90;;;;;;5052540;28;20593;-50
2024/01/11 02:49:02;;;;;;;44.40;24.55;;;-3.50;99.90;;;;;;5052024;28;20097;-47
2024/01/11 02:51:28;;;;;;;49.13;26.15;;;-3.40;99.90;;;;;;5051740;28;20037;-47
2024/01/11 02:53:54;;;;;;;48.40;25.25;;;-3.60;99.90;;;;;;5052377;28;20041;-46
2024/01/11 02:56:19;;;;;;;47.70;24.00;;;-3.60;99.90;;;;;;5050919;28;20240;-51
2024/01/11 02:58:45;;;;;;;46.67;25.83;;;-3.60;99.90;;;;;;5052144;28;20131;-47
2024/01/11 03:01:11;;;;;;;46.83;25.88;;;-3.70;99.90;;;;;;5050881;28;20837;-46
2024/01/11 03:03:37;;;;;;;46.90;25.83;;;-3.60;99.90;;;;;;5054241;28;20140;-46
2024/01/11 03:06:03;;;;;;;46.13;24.77;;;-3.60;99.90;;;;;;5055366;28;20079;-48
2024/01/11 03:08:29;;;;;;;45.28;25.23;;;-3.60;99.90;;;;;;5054105;28;20071;-47
2024/01/11 03:10:54;;;;;;;42.88;24.15;;;-3.60;99.90;;;;;;5052126;28;20155;-47
2024/01/11 03:13:21;;;;;;;51.25;26.40;;;-3.80;99.90;;;;;;5059203;28;20040;-47
2024/01/11 03:15:46;;;;;;;46.90;25.40;;;-3.70;99.90;;;;;;5061539;28;20041;-48
2024/01/11 03:18:12;;;;;;;44.97;24.67;;;-3.70;99.90;;;;;;5064995;28;20118;-47
2024/01/11 03:20:38;;;;;;;46.15;26.52;;;-3.80;99.90;;;;;;5062234;28;20043;-50
2024/01/11 03:23:03;;;;;;;45.33;24.70;;;-3.80;99.90;;;;;;5047874;28;20039;-45
2024/01/11 03:25:29;;;;;;;45.17;25.13;;;-3.80;99.90;;;;;;5061187;28;20036;-48
2024/01/11 03:27:55;;;;;;;46.33;23.95;;;-3.80;99.90;;;;;;5063830;28;20045;-50
2024/01/11 03:30:21;;;;;;;49.17;26.35;;;-3.70;99.90;;;;;;5064486;28;20036;-49
2024/01/11 03:32:47;;;;;;;47.13;25.10;;;-3.70;99.90;;;;;;5059401;28;20029;-47
2024/01/11 03:35:13;;;;;;;44.17;23.40;;;-3.70;99.90;;;;;;5064175;28;20044;-48
2024/01/11 03:37:40;;;;;;;47.47;24.77;;;-3.70;99.90;;;;;;5055168;28;20057;-45
2024/01/11 03:40:06;;;;;;;48.22;25.65;;;-3.80;99.90;;;;;;5064829;28;20248;-46
2024/01/11 03:42:32;;;;;;;49.35;24.17;;;-3.70;99.90;;;;;;5063925;28;20048;-48
2024/01/11 03:44:57;;;;;;;44.47;24.40;;;-3.60;99.90;;;;;;5064432;28;20043;-47
2024/01/11 03:47:23;;;;;;;42.70;24.25;;;-3.50;99.90;;;;;;5060360;28;20077;-48
2024/01/11 03:49:49;;;;;;;47.22;24.38;;;-3.70;99.90;;;;;;5062441;28;20153;-46
2024/01/11 03:52:14;;;;;;;42.58;23.83;;;-3.60;99.90;;;;;;5064741;28;20083;-48
2024/01/11 03:54:40;;;;;;;44.05;24.27;;;-3.60;99.90;;;;;;5045404;28;20044;-46
2024/01/11 03:57:06;;;;;;;44.22;23.63;;;-3.50;99.90;;;;;;5062179;28;20454;-50
2024/01/11 03:59:32;;;;;;;41.80;23.45;;;-2.80;99.90;;;;;;5063310;28;20052;-47
2024/01/11 04:01:59;;;;;;;46.70;25.27;;;-3.50;99.90;;;;;;5063873;28;20044;-46
2024/01/11 04:04:24;;;;;;;45.35;24.65;;;-3.50;99.90;;;;;;5058472;28;20044;-48
2024/01/11 04:06:52;;;;;;;44.97;24.75;;;-3.20;99.90;;;;;;5063675;28;20457;-47
2024/01/11 04:09:17;;;;;;;46.47;25.02;;;-3.50;99.90;;;;;;5063593;28;20075;-48
2024/01/11 04:11:43;;;;;;;44.95;24.60;;;-3.40;99.90;;;;;;5054127;28;20044;-49
2024/01/11 04:14:09;;;;;;;43.47;23.90;;;-3.40;99.90;;;;;;5065564;28;20036;-51
2024/01/11 04:16:40;;;;;;;42.83;23.40;;;-3.30;99.90;;;;;;5059295;28;20040;-49
2024/01/11 04:19:06;;;;;;;44.90;24.98;;;-3.30;99.90;;;;;;5058950;28;20033;-51
2024/01/11 04:21:32;;;;;;;43.55;24.13;;;-3.20;99.90;;;;;;5064090;28;20044;-47
2024/01/11 04:23:58;;;;;;;43.00;23.45;;;-2.90;99.90;;;;;;5063403;28;20090;-48
2024/01/11 04:26:24;;;;;;;42.15;23.92;;;-3.20;99.90;;;;;;5068881;28;20592;-48
2024/01/11 04:28:51;;;;;;;44.53;24.02;;;-3.10;99.90;;;;;;5045941;28;20040;-49
2024/01/11 04:31:17;;;;;;;44.08;24.73;;;-3.00;99.90;;;;;;5063358;28;20039;-50
2024/01/11 04:33:46;;;;;;;43.20;23.67;;;-3.00;99.90;;;;;;5056927;28;20064;-50
2024/01/11 04:36:12;;;;;;;;;;;-3.00;99.90;;;;;;5055943;28;20036;-49
2024/01/11 04:38:38;;;;;;;42.00;23.42;;;-2.80;99.90;;;;;;5060861;28;19920;-48
2024/01/11 04:41:11;;;;;;;47.35;25.50;;;-2.80;99.90;;;;;;5044905;28;20843;-48
2024/01/11 04:43:39;;;;;;;45.80;25.40;;;-2.80;99.90;;;;;;5062378;28;20048;-48
2024/01/11 04:46:16;;;;;;;45.63;25.02;;;-2.70;99.90;;;;;;5063360;28;20424;-48
2024/01/11 04:48:42;;;;;;;48.63;25.35;;;-2.70;99.90;;;;;;5060011;28;20494;-47
2024/01/11 04:51:08;;;;;;;46.55;25.75;;;-2.60;99.90;;;;;;5055047;28;20091;-50
2024/01/11 04:53:39;;;;;;;44.08;24.73;;;-2.50;99.90;;;;;;5059947;28;20044;-47
2024/01/11 04:56:07;;;;;;;49.17;25.58;;;-2.50;99.90;;;;;;5062892;28;20045;-50
2024/01/11 04:58:34;;;;;;;47.20;26.00;;;-2.40;99.90;;;;;;5061179;28;20076;-48
2024/01/11 05:01:00;;;;;;;46.67;25.80;;;-2.40;99.90;;;;;;5062627;28;20043;-49
2024/01/11 05:03:26;;;;;;;51.65;26.70;;;-2.40;99.90;;;;;;5063959;28;20040;-47
2024/01/11 05:05:51;;;;;;;44.00;25.02;;;-2.30;99.90;;;;;;5064751;28;20044;-49
2024/01/11 05:08:17;;;;;;;47.83;25.95;;;-2.20;99.90;;;;;;5064379;28;20039;-48
2024/01/11 05:10:44;;;;;;;50.50;27.42;;;-2.20;99.90;;;;;;5058764;28;20715;-47
2024/01/11 05:13:10;;;;;;;49.00;27.15;;;-2.10;99.90;;;;;;5053921;28;20703;-49
2024/01/11 05:15:36;;;;;;;46.70;26.55;;;-2.10;99.90;;;;;;5054987;28;20043;-48
2024/01/11 05:18:02;;;;;;;50.65;25.55;;;-2.00;99.90;;;;;;5054128;28;20040;-48
2024/01/11 05:20:27;;;;;;;47.80;25.58;;;-2.00;99.90;;;;;;5051769;28;20037;-48
2024/01/11 05:22:54;;;;;;;47.47;26.17;;;-2.00;99.90;;;;;;5033452;28;20370;-46
2024/01/11 05:25:20;;;;;;;49.50;26.75;;;-1.90;99.90;;;;;;5031576;28;20051;-47
2024/01/11 05:27:45;;;;;;;47.42;26.52;;;-1.80;99.90;;;;;;5048960;28;20044;-47
2024/01/11 05:30:12;;;;;;;48.30;26.05;;;-1.80;99.90;;;;;;5048472;28;20039;-46
2024/01/11 05:32:38;;;;;;;49.25;27.60;;;-1.80;99.90;;;;;;5049130;28;20511;-48
2024/01/11 05:35:04;;;;;;;47.67;27.13;;;-1.80;99.90;;;;;;5048165;28;20102;-47
2024/01/11 05:37:29;;;;;;;48.95;26.77;;;-1.70;99.90;;;;;;5049453;28;20044;-47
2024/01/11 05:39:56;;;;;;;47.45;26.25;;;-1.70;99.90;;;;;;5047976;28;20046;-49
2024/01/11 05:42:23;;;;;;;49.83;27.58;;;-1.60;99.90;;;;;;5048395;28;20614;-47
2024/01/11 05:44:49;;;;;;;55.00;28.35;;;-1.60;99.90;;;;;;5029936;28;20589;-48
2024/01/11 05:47:15;;;;;;;45.03;25.33;;;-1.60;99.90;;;;;;5048060;28;20048;-48
2024/01/11 05:49:41;;;;;;;55.00;26.38;;;-1.50;99.90;;;;;;5048399;28;20032;-50
2024/01/11 05:52:06;;;;;;;51.88;26.35;;;-1.60;99.90;;;;;;5051199;28;20495;-48
2024/01/11 05:54:32;;;;;;;45.58;26.55;;;-1.50;99.90;;;;;;5055785;28;20047;-47
2024/01/11 05:56:59;;;;;;;47.08;26.67;;;-1.40;99.90;;;;;;5049315;28;20048;-50
2024/01/11 05:59:25;;;;;;;49.40;27.98;;;-1.40;99.90;;;;;;5049877;28;20128;-50
2024/01/11 06:01:51;;;;;;;51.35;27.95;;;-1.30;99.90;;;;;;5046520;28;20051;-47
2024/01/11 06:04:16;;;;;;;47.50;25.60;;;-1.40;99.90;;;;;;5048843;28;20032;-49
2024/01/11 06:06:42;;;;;;;47.63;27.33;;;-1.30;99.90;;;;;;5048464;28;20046;-47
2024/01/11 06:09:09;;;;;;;46.55;26.52;;;-1.20;99.90;;;;;;5048295;28;20047;-48
2024/01/11 06:11:35;;;;;;;47.97;27.35;;;-1.30;99.90;;;;;;5047004;28;20039;-46
2024/01/11 06:14:02;;;;;;;48.83;28.27;;;-1.30;99.90;;;;;;5048790;28;20462;-47
2024/01/11 06:16:28;;;;;;;46.83;27.38;;;-1.30;99.90;;;;;;5047304;28;20495;-49
2024/01/11 06:18:54;;;;;;;47.55;27.75;;;-1.20;99.90;;;;;;5049688;28;20040;-48
2024/01/11 06:21:20;;;;;;;48.50;26.20;;;-1.20;99.90;;;;;;5048968;28;20495;-51
2024/01/11 06:23:46;;;;;;;51.80;27.25;;;-1.20;99.90;;;;;;5048752;28;20099;-48
2024/01/11 06:26:11;;;;;;;47.72;28.42;;;-1.20;99.90;;;;;;5047313;28;20041;-51
2024/01/11 06:28:37;;;;;;;51.33;28.92;;;-1.20;99.90;;;;;;5047647;28;20048;-47
2024/01/11 06:31:03;;;;;;;49.50;27.60;;;-1.10;99.90;;;;;;5049346;28;20051;-48
2024/01/11 06:33:29;;;;;;;46.47;26.98;;;-1.10;99.90;;;;;;5048016;28;20036;-48
2024/01/11 06:35:55;;;;;;;48.75;27.58;;;-1.50;99.90;;;;;;5048561;28;20451;-47
2024/01/11 06:38:21;;;;;;;50.20;27.70;;;-1.10;99.90;;;;;;5047731;28;20577;-48
2024/01/11 06:40:48;;;;;;;49.78;28.35;;;-1.00;99.90;;;;;;5046559;28;20855;-48
2024/01/11 06:43:15;;;;;;;49.67;27.27;;;-1.10;99.90;;;;;;5045980;28;20118;-49
2024/01/11 06:45:43;;;;;;;52.35;29.10;;;-1.00;99.90;;;;;;5048137;28;20097;-49
2024/01/11 06:48:08;;;;;;;51.72;30.02;;;-1.00;99.90;;;;;;5047684;28;20040;-49
2024/01/11 06:50:34;;;;;;;54.00;30.33;;;-1.00;99.90;;;;;;5047466;28;20067;-47
2024/01/11 06:53:01;;;;;;;49.55;28.30;;;-1.00;99.90;;;;;;5046490;28;20823;-49
2024/01/11 06:55:26;;;;;;;51.60;28.23;;;-1.00;99.90;;;;;;5049292;28;20550;-52
2024/01/11 06:57:52;;;;;;;51.75;28.20;;;-0.90;99.90;;;;;;5048492;28;20105;-48
2024/01/11 07:00:19;;;;;;;47.63;27.13;;;-0.90;99.90;;;;;;5049179;28;20423;-47
2024/01/11 07:02:44;;;;;;;47.50;26.65;;;-0.90;99.90;;;;;;5048377;28;20045;-49
2024/01/11 07:05:10;;;;;;;45.35;26.80;;;-0.90;99.90;;;;;;5047502;28;20826;-47
2024/01/11 07:07:37;;;;;;;49.55;28.20;;;-0.80;99.90;;;;;;5051695;28;20036;-46
2024/01/11 07:10:05;;;;;;;49.30;26.60;;;-0.80;99.90;;;;;;5032010;28;20495;-48
2024/01/11 07:12:31;;;;;;;45.40;26.50;;;-0.70;99.90;;;;;;5051698;28;20040;-50
2024/01/11 07:14:57;;;;;;;48.15;27.42;;;-0.70;99.90;;;;;;5051249;28;20402;-48
2024/01/11 07:17:23;;;;;;;47.55;27.77;;;-0.60;99.90;;;;;;5032305;28;20048;-47
2024/01/11 07:19:49;;;;;;;48.30;27.05;;;-0.60;99.90;;;;;;5051474;28;20119;-48
2024/01/11 07:22:15;;;;;;;48.95;27.20;;;-0.50;99.90;;;;;;5051678;28;20318;-47
2024/01/11 07:24:40;;;;;;;49.17;27.95;;;-0.50;99.90;;;;;;5050579;28;20431;-47
2024/01/11 07:27:06;;;;;;;48.92;27.40;;;-0.50;99.90;;;;;;5051591;28;20028;-49
2024/01/11 07:29:33;;;;;;;48.67;26.80;;;-0.50;99.90;;;;;;5047615;28;20102;-48
2024/01/11 07:32:00;;;;;;;48.65;28.00;;;-0.40;99.90;;;;;;5049270;28;20049;-48
2024/01/11 07:34:27;;;;;;;50.17;27.40;;;-0.40;99.90;;;;;;5051271;28;20120;-48
2024/01/11 07:36:53;;;;;;;43.88;25.88;;;-0.30;99.90;;;;;;5050876;28;20481;-46
2024/01/11 07:39:19;;;;;;;46.53;27.20;;;-0.30;99.90;;;;;;5053470;28;20089;-48
2024/01/11 07:41:45;;;;;;;46.03;28.50;;;-0.30;99.90;;;;;;5055242;28;20468;-47
2024/01/11 07:44:11;;;;;;;50.78;28.35;;;-0.40;99.90;;;;;;5056137;28;20267;-49
2024/01/11 07:46:37;;;;;;;44.95;27.08;;;-0.30;99.90;;;;;;5056007;28;20746;-48
2024/01/11 07:49:03;;;;;;;49.88;28.20;;;-0.30;99.90;;;;;;5056465;28;20419;-48
2024/01/11 07:51:29;;;;;;;48.03;26.67;;;-0.30;99.90;;;;;;5055977;28;20036;-49
2024/01/11 07:53:54;;;;;;;44.40;25.90;;;-0.30;99.90;;;;;;5049646;28;20458;-45
2024/01/11 07:56:20;;;;;;;49.55;26.77;;;-0.20;99.90;;;;;;5049156;28;20055;-49
2024/01/11 07:58:46;;;;;;;48.60;25.85;;;-0.30;99.90;;;;;;5049599;28;20418;-47
2024/01/11 08:01:12;;;;;;;44.30;25.23;;;-0.20;99.90;;;;;;5048623;28;20036;-48
2024/01/11 08:03:38;;;;;;;43.05;24.88;;;-0.30;99.90;;;;;;5043146;28;20134;-49
2024/01/11 08:06:07;;;;;;;48.75;26.02;;;-0.30;99.90;;;;;;5045162;28;20447;-47
2024/01/11 08:08:33;;;;;;;44.55;25.05;;;-0.20;99.90;;;;;;5053285;28;20641;-46
2024/01/11 08:10:59;;;;;;;47.00;25.42;;;-0.30;99.90;;;;;;5053792;28;20029;-48
2024/01/11 08:13:25;;;;;;;42.67;25.08;;;-0.20;99.90;;;;;;5051997;28;20487;-48
2024/01/11 08:15:51;;;;;;;46.67;24.90;;;-0.20;99.90;;;;;;5051082;28;21335;-48
2024/01/11 08:18:19;;;;;;;43.28;25.83;;;-0.20;99.90;;;;;;5049543;28;20342;-46
2024/01/11 08:20:44;;;;;;;40.20;24.15;;;-0.10;99.90;;;;;;5049426;28;20047;-48
2024/01/11 08:23:10;;;;;;;47.53;26.58;;;-0.10;99.90;;;;;;5050240;28;20515;-48
2024/01/11 08:25:36;;;;;;;44.03;26.13;;;-0.10;99.90;;;;;;5050380;28;20155;-48
2024/01/11 08:28:02;;;;;;;42.78;23.73;;;-0.10;99.90;;;;;;5050044;28;20137;-47
2024/01/11 08:30:29;;;;;;;46.28;26.40;;;0.00;99.90;;;;;;5036459;28;20032;-47
2024/01/11 08:32:55;;;;;;;44.70;25.30;;;0.20;99.90;;;;;;5056262;28;20033;-47
2024/01/11 08:35:21;;;;;;;42.75;24.95;;;0.00;99.90;;;;;;5054789;28;20044;-46
2024/01/11 08:37:47;;;;;;;42.75;25.08;;;0.00;99.90;;;;;;5051101;28;20087;-48
2024/01/11 08:40:13;;;;;;;43.72;24.33;;;0.10;99.90;;;;;;5052246;28;20076;-48
2024/01/11 08:42:41;;;;;;;40.85;23.73;;;0.10;99.90;;;;;;5034480;28;20477;-49
2024/01/11 08:45:07;;;;;;;41.53;24.60;;;0.30;99.90;;;;;;5061196;28;20047;-49
2024/01/11 08:47:34;;;;;;;43.05;25.55;;;0.20;99.90;;;;;;5054847;28;20098;-50
2024/01/11 08:50:00;;;;;;;42.42;23.98;;;-0.30;99.90;;;;;;5055571;28;20047;-46
2024/01/11 08:52:26;;;;;;;39.90;24.23;;;0.30;99.90;;;;;;5041290;28;20089;-47
2024/01/11 08:54:51;;;;;;;40.28;23.13;;;0.30;99.90;;;;;;5042558;28;20029;-48
2024/01/11 08:57:17;;;;;;;44.63;25.17;;;0.30;99.90;;;;;;5057173;28;20609;-48
2024/01/11 08:59:44;;;;;;;40.08;24.42;;;0.30;99.90;;;;;;5050262;28;20044;-47
2024/01/11 09:02:10;;;;;;;38.92;22.20;;;0.40;99.90;;;;;;5049879;28;20037;-50
2024/01/11 09:04:36;;;;;;;44.47;23.77;;;0.30;99.90;;;;;;5048610;28;20080;-47
2024/01/11 09:07:02;;;;;;;39.80;24.17;;;0.50;99.90;;;;;;5048802;28;20148;-48
2024/01/11 09:09:28;;;;;;;44.70;25.23;;;0.50;99.90;;;;;;5049076;28;20035;-48
2024/01/11 09:11:53;;;;;;;40.70;23.17;;;0.50;99.90;;;;;;5048050;28;20416;-47
2024/01/11 09:14:19;;;;;;;42.33;24.83;;;0.60;99.90;;;;;;5056979;28;20040;-49
2024/01/11 09:16:45;;;;;;;40.60;23.77;;;0.70;99.90;;;;;;5061218;28;20052;-52
2024/01/11 09:19:12;;;;;;;39.92;23.80;;;0.70;99.90;;;;;;5055852;28;20037;-47
2024/01/11 09:21:37;;;;;;;42.38;23.77;;;0.80;99.90;;;;;;5059871;28;20063;-48
2024/01/11 09:24:04;;;;;;;40.25;23.83;;;0.80;99.90;;;;;;5058977;28;20566;-50
2024/01/11 09:26:30;;;;;;;40.97;24.27;;;0.90;99.90;;;;;;5059555;28;20045;-53
2024/01/11 09:28:55;;;;;;;38.47;23.52;;;0.90;99.90;;;;;;5050109;28;20408;-47
2024/01/11 09:31:21;;;;;;;37.90;22.85;;;1.00;99.90;;;;;;5052308;28;20033;-47
2024/01/11 09:33:48;;;;;;;38.28;23.33;;;0.90;99.90;;;;;;5049308;28;20475;-48
2024/01/11 09:36:14;;;;;;;36.25;21.83;;;1.00;99.90;;;;;;5044280;28;20133;-49
2024/01/11 09:38:40;;;;;;;36.78;22.08;;;1.00;99.90;;;;;;5053876;28;20179;-47
2024/01/11 09:41:08;;;;;;;38.65;22.38;;;1.20;99.90;;;;;;5042728;28;20075;-48
2024/01/11 09:43:35;;;;;;;39.17;23.15;;;1.10;99.90;;;;;;5054293;28;20128;-51
2024/01/11 09:46:07;;;;;;;45.83;22.13;;;1.10;99.90;;;;;;5056166;28;20132;-49
2024/01/11 09:48:35;;;;;;;34.28;20.90;;;1.20;99.90;;;;;;5063280;28;20044;-49
2024/01/11 09:51:07;;;;;;;37.10;22.63;;;1.30;99.90;;;;;;5052878;28;20037;-48
2024/01/11 09:53:34;;;;;;;33.65;21.63;;;1.30;99.90;;;;;;5050854;28;20506;-49
2024/01/11 09:56:00;;;;;;;36.58;22.85;;;1.30;99.90;;;;;;5056326;28;20403;-51
2024/01/11 09:58:26;;;;;;;32.75;21.85;;;1.40;99.90;;;;;;5059698;28;20048;-47
2024/01/11 10:00:55;;;;;;;38.75;22.05;;;1.50;99.90;;;;;;5060392;28;20115;-47
2024/01/11 10:03:26;;;;;;;37.33;22.67;;;1.40;99.90;;;;;;5060924;28;20519;-47
2024/01/11 10:05:56;;;;;;;39.10;23.23;;;1.40;99.90;;;;;;5055103;28;20063;-48
2024/01/11 10:08:23;;;;;;;35.72;21.35;;;1.50;99.90;;;;;;5056110;28;20048;-47
2024/01/11 10:10:49;;;;;;;38.72;22.77;;;1.50;99.90;;;;;;5056843;28;20045;-49
2024/01/11 10:13:18;;;;;;;36.20;21.92;;;1.50;99.90;;;;;;5046836;28;20040;-48
2024/01/11 10:15:44;;;;;;;39.17;23.55;;;1.50;99.90;;;;;;5049316;28;20099;-48
2024/01/11 10:18:10;;;;;;;35.15;22.52;;;1.50;99.90;;;;;;5050200;28;20044;-48
2024/01/11 10:20:37;;;;;;;36.38;22.17;;;1.50;99.90;;;;;;5048616;28;20301;-51
2024/01/11 10:23:03;;;;;;;36.20;22.33;;;1.50;99.90;;;;;;5048809;28;20452;-47
2024/01/11 10:25:29;;;;;;;36.28;21.83;;;1.50;99.90;;;;;;5034711;28;20229;-47
2024/01/11 10:27:55;;;;;;;35.15;22.05;;;1.60;99.90;;;;;;5048587;28;20041;-48
2024/01/11 10:30:23;;;;;;;36.83;22.77;;;1.60;99.90;;;;;;5037648;28;20449;-48
2024/01/11 10:32:49;;;;;;;39.17;23.05;;;1.60;99.90;;;;;;5052351;28;20048;-47
2024/01/11 10:35:17;;;;;;;36.25;22.08;;;1.70;99.90;;;;;;5048822;28;20325;-48
2024/01/11 10:37:44;;;;;;;40.78;23.40;;;1.70;99.90;;;;;;5049852;28;20049;-49
2024/01/11 10:40:12;;;;;;;37.60;22.88;;;1.70;99.90;;;;;;5048182;28;20041;-48
2024/01/11 10:42:45;;;;;;;34.63;20.83;;;1.70;99.90;;;;;;5052507;28;20462;-51
2024/01/11 10:45:19;;;;;;;33.38;20.83;;;1.70;99.90;;;;;;5050646;28;20041;-51
2024/01/11 10:48:17;;;;;;;34.92;21.65;;;1.70;99.90;;;;;;5037174;28;20052;-46
2024/01/11 10:50:45;;;;;;;32.72;20.90;;;1.70;99.90;;;;;;5055352;28;20053;-48
2024/01/11 10:53:36;;;;;;;35.38;21.60;;;1.80;99.90;;;;;;5051772;28;20045;-48
2024/01/11 10:56:05;;;;;;;37.10;22.25;;;1.80;99.90;;;;;;5056561;28;20048;-48
2024/01/11 10:58:32;;;;;;;37.35;22.10;;;1.80;99.90;;;;;;5052123;28;20047;-49
2024/01/11 11:01:00;;;;;;;37.47;21.95;;;1.80;99.90;;;;;;5055536;28;20109;-49
2024/01/11 11:03:26;;;;;;;36.30;22.02;;;1.80;99.90;;;;;;5055805;28;20034;-47
2024/01/11 11:05:56;;;;;;;33.60;20.90;;;1.90;99.90;;;;;;5054853;28;20037;-50
2024/01/11 11:08:26;;;;;;;34.15;20.33;;;2.00;99.90;;;;;;5055294;28;20133;-47
2024/01/11 11:10:59;;;;;;;32.65;20.40;;;2.00;99.90;;;;;;5057232;28;20098;-49
2024/01/11 11:13:26;;;;;;;33.42;20.88;;;2.00;99.90;;;;;;5060299;28;20159;-49
2024/01/11 11:15:53;;;;;;;33.78;20.92;;;2.00;99.90;;;;;;5061594;28;20135;-49
2024/01/11 11:18:20;;;;;;;38.30;21.23;;;2.00;99.90;;;;;;5063092;28;20052;-52
2024/01/11 11:20:47;;;;;;;31.67;20.08;;;2.00;99.90;;;;;;5060260;28;20627;-47
2024/01/11 11:23:17;;;;;;;33.88;19.98;;;2.10;99.90;;;;;;5061972;28;20442;-51
2024/01/11 11:25:45;;;;;;;32.17;19.98;;;2.20;99.90;;;;;;5061781;28;20131;-51
2024/01/11 11:28:18;;;;;;;36.00;20.15;;;2.20;99.90;;;;;;5061648;28;20055;-49
2024/01/11 11:30:47;;;;;;;35.38;20.52;;;2.20;99.90;;;;;;5058640;28;20119;-52
2024/01/11 11:33:20;;;;;;;35.70;20.88;;;2.30;99.90;;;;;;5062456;28;20032;-50
2024/01/11 11:35:47;;;;;;;31.25;19.27;;;2.30;99.90;;;;;;5058414;28;20514;-50
2024/01/11 11:38:21;;;;;;;32.72;19.80;;;2.30;99.90;;;;;;5061411;28;20076;-48
2024/01/11 11:40:49;;;;;;;31.48;20.00;;;2.30;99.90;;;;;;5061491;28;20047;-49
2024/01/11 11:43:19;;;;;;;34.42;20.65;;;2.30;99.90;;;;;;5058690;28;20574;-47
2024/01/11 11:45:50;;;;;;;37.42;21.33;;;2.40;99.90;;;;;;5050705;28;20041;-50
2024/01/11 11:48:38;;;;;;;40.05;21.02;;;2.40;99.90;;;;;;5053912;28;20052;-47
2024/01/11 11:51:08;;;;;;;40.50;20.70;;;2.50;99.90;;;;;;5039264;28;20033;-48
2024/01/11 11:53:37;;;;;;;37.13;22.17;;;2.50;99.90;;;;;;5060286;28;20119;-50
2024/01/11 11:56:04;;;;;;;38.20;21.80;;;2.50;99.90;;;;;;5058739;28;20060;-48
2024/01/11 11:58:31;;;;;;;36.75;21.95;;;2.50;99.90;;;;;;5052320;28;20571;-48
2024/01/11 12:00:58;;;;;;;38.20;21.92;;;2.50;99.90;;;;;;5057320;28;20036;-48
2024/01/11 12:03:37;;;;;;;38.60;22.23;;;2.50;99.90;;;;;;5061711;28;20040;-49
2024/01/11 12:06:04;;;;;;;39.27;21.60;;;2.50;99.90;;;;;;5058947;28;20090;-48
2024/01/11 12:08:31;;;;;;;38.33;22.83;;;2.50;99.90;;;;;;5059523;28;20071;-51
2024/01/11 12:10:57;;;;;;;34.50;20.98;;;2.50;99.90;;;;;;5053161;28;20113;-49
2024/01/11 12:13:24;;;;;;;34.95;20.90;;;2.60;99.90;;;;;;5058297;28;20480;-49
2024/01/11 12:15:50;;;;;;;37.00;21.40;;;2.60;99.90;;;;;;5059579;28;20117;-49
2024/01/11 12:18:16;;;;;;;31.73;19.65;;;2.60;99.90;;;;;;5058838;28;20044;-47
2024/01/11 12:20:41;;;;;;;35.15;20.55;;;2.60;99.90;;;;;;5062202;28;20036;-51
2024/01/11 12:23:07;;;;;;;36.30;20.10;;;2.60;99.90;;;;;;5058210;28;20089;-48
2024/01/11 12:25:33;;;;;;;35.05;21.80;;;2.60;99.90;;;;;;5051071;28;20044;-50
2024/01/11 12:27:59;;;;;;;32.97;19.60;;;2.60;99.90;;;;;;5052962;28;20037;-49